Aérodrome :
LOGIN :

S'inscrire | Disclaimer

   EN    FR    IT 

 










Légende :    VFR   VFR Marginal   IFR   IFR Intensif   IFR Très Intensif
Visi : 
Plafond : 
>= 8 km
>= 3000ft
5 à 8 km
1000 à 3000 ft
1500m à 5 km
500 à 1000 ft
800 à 1500m
200 à 500 ft
< 800m
< 200 ft
Symboles :   Orages  Brouillard  Fortes neiges  Fortes précipitations  Vent > 20 kt
SIGMETs :   Divers  Orages  Givrage  Turbulence  Onde Orograph.  Cendres Volcan.







- Altitude de l'aérodrome : 645 ft
- Code IATA : DLE
- Voir les cartes d'approche


LFGJ - Dole Tavaux

DERNIER METAR :
  • 181730Z AUTO 19021KT 9999 -RA OVC014/// ///TCU 07/07 Q1011 TEMPO 4000 RA BKN012

METARs EXPIRÉS :
  • 181700Z AUTO 19021KT 9999 OVC012 07/07 Q1011 TEMPO 4000 RA
  • 181630Z AUTO 19021KT 9999 SCT012 OVC019 07/06 Q1012 TEMPO 4000 RA BKN012
  • 181600Z AUTO 20019KT 9999 OVC020 07/06 Q1012 TEMPO 20022G35KT 4000 RA BKN012
  • 181530Z AUTO 19020KT 9999 -RA FEW012/// OVC021/// ///TCU 07/06 Q1012 TEMPO 20022G35KT 4000 RA BKN012
  • 181500Z AUTO 19020KT 9999 -RA FEW015/// OVC022/// ///TCU 07/06 Q1012 TEMPO 20022G35KT 4000 RA BKN012

TAF TAF LFGJ
Valide du 18 à 15h jusqu'au 19 à 00h UTC


181400Z 1815/1824 20020KT 9999 FEW012 BKN025
TEMPO 1815/1817 20022G35KT
PROB40
TEMPO 1815/1822 4000 RA BKN012
Pas de NOTAMs connus pour ce terrain.
1 SIGMET publié pour la FIR Reims (LFEE) :
 
Turbulence forte
LFEE SIGMET 8 VALID 181700/182100 LFPW
LFEE REIMS FIR/UIR SEV TURB FCST WI N4845 E00800 - N4730 E00730 - N4700 E00645 - N4700 E00630 - N4845 E00700 - N4845 E00800 SFC/FL070 STNR NC=



MET'MAP, la Météo Aéronautique d'un coup d'oeil ! - Copyright ORBIFLY Décembre 2007 - Disclaimer

ORBIFLY MET'MAP TEAM :

Programmation & Développement : Alexandra Zaïnal
Conception & Développement : Baudouin d'Aumeries
Co-Programmation & Développement : Marc-Olivier Méhu
Soutien technique & logistique : Manuel Goepfert

Contact : metmap@orbifly.com




SOURCES & CREDITS :

   NOAA